sensor_id;sensor_type;location;lat;lon;timestamp;P1;durP1;ratioP1;P2;durP2;ratioP2
25351;SDS011;13304;48.464;8.712;2023-07-13T00:01:30;2.80;;;1.40;;
25351;SDS011;13304;48.464;8.712;2023-07-13T00:03:56;5.55;;;1.30;;
25351;SDS011;13304;48.464;8.712;2023-07-13T00:06:22;2.28;;;1.30;;
25351;SDS011;13304;48.464;8.712;2023-07-13T00:08:48;3.15;;;1.60;;
25351;SDS011;13304;48.464;8.712;2023-07-13T00:11:15;2.85;;;1.23;;
25351;SDS011;13304;48.464;8.712;2023-07-13T00:13:42;2.05;;;1.25;;
25351;SDS011;13304;48.464;8.712;2023-07-13T00:16:08;2.63;;;1.38;;
25351;SDS011;13304;48.464;8.712;2023-07-13T00:18:36;4.13;;;1.50;;
25351;SDS011;13304;48.464;8.712;2023-07-13T00:21:02;3.40;;;1.42;;
25351;SDS011;13304;48.464;8.712;2023-07-13T00:23:32;4.72;;;1.30;;
25351;SDS011;13304;48.464;8.712;2023-07-13T00:26:03;3.60;;;1.30;;
25351;SDS011;13304;48.464;8.712;2023-07-13T00:28:29;2.67;;;1.42;;
25351;SDS011;13304;48.464;8.712;2023-07-13T00:30:55;3.47;;;1.50;;
25351;SDS011;13304;48.464;8.712;2023-07-13T00:33:21;2.30;;;1.42;;
25351;SDS011;13304;48.464;8.712;2023-07-13T00:35:48;3.53;;;1.50;;
25351;SDS011;13304;48.464;8.712;2023-07-13T00:38:14;2.92;;;1.33;;
25351;SDS011;13304;48.464;8.712;2023-07-13T00:40:40;2.13;;;1.20;;
25351;SDS011;13304;48.464;8.712;2023-07-13T00:43:12;2.05;;;1.30;;
25351;SDS011;13304;48.464;8.712;2023-07-13T00:48:11;4.28;;;1.30;;
25351;SDS011;13304;48.464;8.712;2023-07-13T00:50:38;6.65;;;1.27;;
25351;SDS011;13304;48.464;8.712;2023-07-13T00:53:05;2.50;;;1.25;;
25351;SDS011;13304;48.464;8.712;2023-07-13T00:55:32;3.33;;;1.60;;
25351;SDS011;13304;48.464;8.712;2023-07-13T00:57:58;3.40;;;1.35;;
25351;SDS011;13304;48.464;8.712;2023-07-13T01:00:24;4.22;;;1.48;;
25351;SDS011;13304;48.464;8.712;2023-07-13T01:02:52;8.75;;;1.60;;
25351;SDS011;13304;48.464;8.712;2023-07-13T01:05:19;2.58;;;1.30;;
25351;SDS011;13304;48.464;8.712;2023-07-13T01:07:47;1.95;;;1.30;;
25351;SDS011;13304;48.464;8.712;2023-07-13T01:10:15;3.47;;;1.30;;
25351;SDS011;13304;48.464;8.712;2023-07-13T01:12:42;2.63;;;1.25;;
25351;SDS011;13304;48.464;8.712;2023-07-13T01:18:00;3.53;;;1.38;;
25351;SDS011;13304;48.464;8.712;2023-07-13T01:20:25;3.65;;;1.05;;
25351;SDS011;13304;48.464;8.712;2023-07-13T01:22:51;4.60;;;1.50;;
25351;SDS011;13304;48.464;8.712;2023-07-13T01:25:17;11.30;;;1.70;;
25351;SDS011;13304;48.464;8.712;2023-07-13T01:27:43;2.65;;;1.40;;
25351;SDS011;13304;48.464;8.712;2023-07-13T01:30:09;5.22;;;1.25;;
25351;SDS011;13304;48.464;8.712;2023-07-13T01:32:35;7.93;;;1.48;;
25351;SDS011;13304;48.464;8.712;2023-07-13T01:35:01;5.82;;;1.80;;
25351;SDS011;13304;48.464;8.712;2023-07-13T01:37:27;4.55;;;1.58;;
25351;SDS011;13304;48.464;8.712;2023-07-13T01:39:58;3.55;;;1.40;;
25351;SDS011;13304;48.464;8.712;2023-07-13T01:42:24;2.13;;;1.30;;
25351;SDS011;13304;48.464;8.712;2023-07-13T01:44:50;3.65;;;1.40;;
25351;SDS011;13304;48.464;8.712;2023-07-13T01:47:15;3.42;;;1.30;;
25351;SDS011;13304;48.464;8.712;2023-07-13T01:49:41;4.97;;;1.50;;
25351;SDS011;13304;48.464;8.712;2023-07-13T01:52:07;5.35;;;1.77;;
25351;SDS011;13304;48.464;8.712;2023-07-13T01:54:32;5.07;;;1.48;;
25351;SDS011;13304;48.464;8.712;2023-07-13T01:56:59;2.42;;;1.38;;
25351;SDS011;13304;48.464;8.712;2023-07-13T01:59:25;3.40;;;1.40;;
25351;SDS011;13304;48.464;8.712;2023-07-13T02:01:51;7.28;;;1.48;;
25351;SDS011;13304;48.464;8.712;2023-07-13T02:04:16;4.03;;;1.70;;
25351;SDS011;13304;48.464;8.712;2023-07-13T02:06:42;4.93;;;1.88;;
25351;SDS011;13304;48.464;8.712;2023-07-13T02:09:07;4.10;;;1.40;;
25351;SDS011;13304;48.464;8.712;2023-07-13T02:11:33;6.47;;;1.52;;
25351;SDS011;13304;48.464;8.712;2023-07-13T02:13:59;5.90;;;1.35;;
25351;SDS011;13304;48.464;8.712;2023-07-13T02:16:26;7.57;;;1.50;;
25351;SDS011;13304;48.464;8.712;2023-07-13T02:18:52;2.75;;;1.10;;
25351;SDS011;13304;48.464;8.712;2023-07-13T02:21:18;3.47;;;1.40;;
25351;SDS011;13304;48.464;8.712;2023-07-13T02:23:44;2.83;;;1.30;;
25351;SDS011;13304;48.464;8.712;2023-07-13T02:26:09;3.67;;;1.23;;
25351;SDS011;13304;48.464;8.712;2023-07-13T02:28:35;5.32;;;1.52;;
25351;SDS011;13304;48.464;8.712;2023-07-13T02:31:05;5.68;;;1.63;;
25351;SDS011;13304;48.464;8.712;2023-07-13T02:33:32;3.55;;;1.27;;
25351;SDS011;13304;48.464;8.712;2023-07-13T02:35:58;4.05;;;1.33;;
25351;SDS011;13304;48.464;8.712;2023-07-13T02:38:23;2.65;;;1.25;;
25351;SDS011;13304;48.464;8.712;2023-07-13T02:40:49;11.77;;;1.60;;
25351;SDS011;13304;48.464;8.712;2023-07-13T02:43:15;9.60;;;1.30;;
25351;SDS011;13304;48.464;8.712;2023-07-13T02:45:43;1.77;;;1.30;;
25351;SDS011;13304;48.464;8.712;2023-07-13T02:48:13;3.63;;;1.40;;
25351;SDS011;13304;48.464;8.712;2023-07-13T02:50:39;6.72;;;1.70;;
25351;SDS011;13304;48.464;8.712;2023-07-13T02:53:04;2.38;;;1.38;;
25351;SDS011;13304;48.464;8.712;2023-07-13T02:55:30;2.78;;;1.55;;
25351;SDS011;13304;48.464;8.712;2023-07-13T02:57:56;7.18;;;1.85;;
25351;SDS011;13304;48.464;8.712;2023-07-13T03:00:22;3.20;;;1.42;;
25351;SDS011;13304;48.464;8.712;2023-07-13T03:02:48;8.13;;;1.40;;
25351;SDS011;13304;48.464;8.712;2023-07-13T03:05:13;8.13;;;1.35;;
25351;SDS011;13304;48.464;8.712;2023-07-13T03:07:40;2.65;;;1.20;;
25351;SDS011;13304;48.464;8.712;2023-07-13T03:10:06;2.53;;;1.30;;
25351;SDS011;13304;48.464;8.712;2023-07-13T03:12:32;5.03;;;1.70;;
25351;SDS011;13304;48.464;8.712;2023-07-13T03:14:58;4.75;;;1.17;;
25351;SDS011;13304;48.464;8.712;2023-07-13T03:17:23;2.58;;;1.20;;
25351;SDS011;13304;48.464;8.712;2023-07-13T03:19:49;4.82;;;1.30;;
25351;SDS011;13304;48.464;8.712;2023-07-13T03:22:19;5.38;;;1.20;;
25351;SDS011;13304;48.464;8.712;2023-07-13T03:24:45;2.45;;;1.25;;
25351;SDS011;13304;48.464;8.712;2023-07-13T03:27:11;6.85;;;1.58;;
25351;SDS011;13304;48.464;8.712;2023-07-13T03:29:37;4.57;;;1.45;;
25351;SDS011;13304;48.464;8.712;2023-07-13T03:32:03;4.88;;;1.48;;
25351;SDS011;13304;48.464;8.712;2023-07-13T03:34:29;5.20;;;1.60;;
25351;SDS011;13304;48.464;8.712;2023-07-13T03:36:55;5.28;;;1.52;;
25351;SDS011;13304;48.464;8.712;2023-07-13T03:39:22;4.35;;;1.50;;
25351;SDS011;13304;48.464;8.712;2023-07-13T03:41:48;4.30;;;1.63;;
25351;SDS011;13304;48.464;8.712;2023-07-13T03:44:15;4.95;;;1.33;;
25351;SDS011;13304;48.464;8.712;2023-07-13T03:46:41;9.27;;;1.58;;
25351;SDS011;13304;48.464;8.712;2023-07-13T03:49:07;10.50;;;1.50;;
25351;SDS011;13304;48.464;8.712;2023-07-13T03:51:34;9.02;;;1.70;;
25351;SDS011;13304;48.464;8.712;2023-07-13T03:54:00;8.68;;;1.80;;
25351;SDS011;13304;48.464;8.712;2023-07-13T03:56:27;6.63;;;1.98;;
25351;SDS011;13304;48.464;8.712;2023-07-13T03:58:55;7.30;;;1.75;;
25351;SDS011;13304;48.464;8.712;2023-07-13T04:01:21;9.32;;;2.15;;
25351;SDS011;13304;48.464;8.712;2023-07-13T04:03:48;4.80;;;1.48;;
25351;SDS011;13304;48.464;8.712;2023-07-13T04:06:16;4.32;;;1.48;;
25351;SDS011;13304;48.464;8.712;2023-07-13T04:08:49;10.52;;;2.10;;
25351;SDS011;13304;48.464;8.712;2023-07-13T04:11:18;3.67;;;1.60;;
25351;SDS011;13304;48.464;8.712;2023-07-13T04:13:45;3.30;;;1.52;;
25351;SDS011;13304;48.464;8.712;2023-07-13T04:16:12;2.75;;;1.38;;
25351;SDS011;13304;48.464;8.712;2023-07-13T04:18:38;4.55;;;1.60;;
25351;SDS011;13304;48.464;8.712;2023-07-13T04:21:04;5.10;;;1.98;;
25351;SDS011;13304;48.464;8.712;2023-07-13T04:23:29;3.60;;;1.23;;
25351;SDS011;13304;48.464;8.712;2023-07-13T04:25:55;6.57;;;1.88;;
25351;SDS011;13304;48.464;8.712;2023-07-13T04:28:22;5.60;;;1.83;;
25351;SDS011;13304;48.464;8.712;2023-07-13T04:30:49;4.78;;;1.63;;
25351;SDS011;13304;48.464;8.712;2023-07-13T04:33:15;7.60;;;1.63;;
25351;SDS011;13304;48.464;8.712;2023-07-13T04:35:47;4.88;;;1.45;;
25351;SDS011;13304;48.464;8.712;2023-07-13T04:38:26;5.13;;;1.20;;
25351;SDS011;13304;48.464;8.712;2023-07-13T04:40:59;5.63;;;1.70;;
25351;SDS011;13304;48.464;8.712;2023-07-13T04:43:27;6.03;;;1.60;;
25351;SDS011;13304;48.464;8.712;2023-07-13T04:45:53;4.65;;;1.50;;
25351;SDS011;13304;48.464;8.712;2023-07-13T04:48:20;10.98;;;1.70;;
25351;SDS011;13304;48.464;8.712;2023-07-13T04:50:46;3.50;;;1.83;;
25351;SDS011;13304;48.464;8.712;2023-07-13T04:53:12;9.10;;;2.28;;
25351;SDS011;13304;48.464;8.712;2023-07-13T04:55:38;7.95;;;2.17;;
25351;SDS011;13304;48.464;8.712;2023-07-13T04:58:04;6.10;;;2.20;;
25351;SDS011;13304;48.464;8.712;2023-07-13T05:00:30;14.00;;;2.40;;
25351;SDS011;13304;48.464;8.712;2023-07-13T05:02:56;8.18;;;2.08;;
25351;SDS011;13304;48.464;8.712;2023-07-13T05:05:23;7.45;;;1.70;;
25351;SDS011;13304;48.464;8.712;2023-07-13T05:07:50;9.60;;;1.70;;
25351;SDS011;13304;48.464;8.712;2023-07-13T05:10:17;9.07;;;2.03;;
25351;SDS011;13304;48.464;8.712;2023-07-13T05:12:42;7.63;;;1.90;;
25351;SDS011;13304;48.464;8.712;2023-07-13T05:15:08;9.50;;;2.47;;
25351;SDS011;13304;48.464;8.712;2023-07-13T05:17:34;11.00;;;2.72;;
25351;SDS011;13304;48.464;8.712;2023-07-13T05:20:00;8.05;;;2.72;;
25351;SDS011;13304;48.464;8.712;2023-07-13T05:22:26;11.45;;;2.97;;
25351;SDS011;13304;48.464;8.712;2023-07-13T05:24:52;6.93;;;2.20;;
25351;SDS011;13304;48.464;8.712;2023-07-13T05:27:17;6.88;;;2.38;;
25351;SDS011;13304;48.464;8.712;2023-07-13T05:29:43;6.53;;;2.05;;
25351;SDS011;13304;48.464;8.712;2023-07-13T05:32:09;5.25;;;2.08;;
25351;SDS011;13304;48.464;8.712;2023-07-13T05:34:35;8.93;;;1.92;;
25351;SDS011;13304;48.464;8.712;2023-07-13T05:37:01;6.25;;;1.92;;
25351;SDS011;13304;48.464;8.712;2023-07-13T05:39:26;11.05;;;2.33;;
25351;SDS011;13304;48.464;8.712;2023-07-13T05:41:53;10.82;;;2.88;;
25351;SDS011;13304;48.464;8.712;2023-07-13T05:44:18;9.07;;;2.53;;
25351;SDS011;13304;48.464;8.712;2023-07-13T05:46:44;5.95;;;2.30;;
25351;SDS011;13304;48.464;8.712;2023-07-13T05:49:10;11.07;;;2.53;;
25351;SDS011;13304;48.464;8.712;2023-07-13T05:51:36;20.52;;;3.13;;
25351;SDS011;13304;48.464;8.712;2023-07-13T05:54:02;11.38;;;2.88;;
25351;SDS011;13304;48.464;8.712;2023-07-13T05:56:28;10.40;;;2.72;;
25351;SDS011;13304;48.464;8.712;2023-07-13T05:58:54;10.00;;;2.10;;
25351;SDS011;13304;48.464;8.712;2023-07-13T06:01:21;11.60;;;2.88;;
25351;SDS011;13304;48.464;8.712;2023-07-13T06:03:48;9.55;;;2.63;;
25351;SDS011;13304;48.464;8.712;2023-07-13T06:06:14;11.32;;;2.13;;
25351;SDS011;13304;48.464;8.712;2023-07-13T06:08:45;6.28;;;1.80;;
25351;SDS011;13304;48.464;8.712;2023-07-13T06:11:20;6.45;;;2.20;;
25351;SDS011;13304;48.464;8.712;2023-07-13T06:13:47;6.60;;;2.50;;
25351;SDS011;13304;48.464;8.712;2023-07-13T06:16:13;12.95;;;2.17;;
25351;SDS011;13304;48.464;8.712;2023-07-13T06:18:40;5.30;;;2.40;;
25351;SDS011;13304;48.464;8.712;2023-07-13T06:21:07;9.20;;;2.30;;
25351;SDS011;13304;48.464;8.712;2023-07-13T06:23:41;6.53;;;2.22;;
25351;SDS011;13304;48.464;8.712;2023-07-13T06:26:10;7.03;;;2.28;;
25351;SDS011;13304;48.464;8.712;2023-07-13T06:28:37;8.10;;;2.20;;
25351;SDS011;13304;48.464;8.712;2023-07-13T06:31:04;8.55;;;2.22;;
25351;SDS011;13304;48.464;8.712;2023-07-13T06:33:31;7.15;;;2.20;;
25351;SDS011;13304;48.464;8.712;2023-07-13T06:35:58;10.77;;;2.00;;
25351;SDS011;13304;48.464;8.712;2023-07-13T06:38:23;16.27;;;2.28;;
25351;SDS011;13304;48.464;8.712;2023-07-13T06:40:49;17.52;;;2.28;;
25351;SDS011;13304;48.464;8.712;2023-07-13T06:43:15;12.45;;;2.40;;
25351;SDS011;13304;48.464;8.712;2023-07-13T06:45:45;2.70;;;1.73;;
25351;SDS011;13304;48.464;8.712;2023-07-13T06:48:14;5.45;;;1.60;;
25351;SDS011;13304;48.464;8.712;2023-07-13T06:50:40;11.35;;;1.67;;
25351;SDS011;13304;48.464;8.712;2023-07-13T06:53:07;6.78;;;2.10;;
25351;SDS011;13304;48.464;8.712;2023-07-13T06:55:33;9.85;;;2.20;;
25351;SDS011;13304;48.464;8.712;2023-07-13T06:57:58;7.75;;;1.52;;
25351;SDS011;13304;48.464;8.712;2023-07-13T07:00:24;5.55;;;1.63;;
25351;SDS011;13304;48.464;8.712;2023-07-13T07:02:50;7.15;;;1.60;;
25351;SDS011;13304;48.464;8.712;2023-07-13T07:05:15;3.83;;;1.20;;
25351;SDS011;13304;48.464;8.712;2023-07-13T07:07:43;6.18;;;1.80;;
25351;SDS011;13304;48.464;8.712;2023-07-13T07:10:08;5.40;;;1.80;;
25351;SDS011;13304;48.464;8.712;2023-07-13T07:12:34;7.95;;;1.50;;
25351;SDS011;13304;48.464;8.712;2023-07-13T07:15:00;9.52;;;1.65;;
25351;SDS011;13304;48.464;8.712;2023-07-13T07:17:26;6.05;;;1.63;;
25351;SDS011;13304;48.464;8.712;2023-07-13T07:19:52;5.70;;;1.67;;
25351;SDS011;13304;48.464;8.712;2023-07-13T07:22:21;6.03;;;1.30;;
25351;SDS011;13304;48.464;8.712;2023-07-13T07:24:46;2.55;;;1.10;;
25351;SDS011;13304;48.464;8.712;2023-07-13T07:27:12;6.18;;;1.45;;
25351;SDS011;13304;48.464;8.712;2023-07-13T07:29:38;5.53;;;1.48;;
25351;SDS011;13304;48.464;8.712;2023-07-13T07:32:04;5.40;;;1.30;;
25351;SDS011;13304;48.464;8.712;2023-07-13T07:34:30;5.97;;;1.52;;
25351;SDS011;13304;48.464;8.712;2023-07-13T07:36:58;3.47;;;1.40;;
25351;SDS011;13304;48.464;8.712;2023-07-13T07:39:25;4.65;;;1.88;;
25351;SDS011;13304;48.464;8.712;2023-07-13T07:41:51;3.05;;;1.27;;
25351;SDS011;13304;48.464;8.712;2023-07-13T07:44:17;5.43;;;1.30;;
25351;SDS011;13304;48.464;8.712;2023-07-13T07:46:45;3.55;;;1.20;;
25351;SDS011;13304;48.464;8.712;2023-07-13T07:49:14;5.05;;;1.20;;
25351;SDS011;13304;48.464;8.712;2023-07-13T07:51:42;3.28;;;1.60;;
25351;SDS011;13304;48.464;8.712;2023-07-13T07:54:09;3.75;;;1.75;;
25351;SDS011;13304;48.464;8.712;2023-07-13T07:56:34;5.78;;;1.75;;
25351;SDS011;13304;48.464;8.712;2023-07-13T07:59:02;3.80;;;1.23;;
25351;SDS011;13304;48.464;8.712;2023-07-13T08:01:28;4.80;;;1.27;;
25351;SDS011;13304;48.464;8.712;2023-07-13T08:03:54;3.38;;;1.35;;
25351;SDS011;13304;48.464;8.712;2023-07-13T08:06:20;3.88;;;1.17;;
25351;SDS011;13304;48.464;8.712;2023-07-13T08:08:47;5.90;;;1.52;;
25351;SDS011;13304;48.464;8.712;2023-07-13T08:11:13;7.45;;;1.40;;
25351;SDS011;13304;48.464;8.712;2023-07-13T08:13:39;6.32;;;1.63;;
25351;SDS011;13304;48.464;8.712;2023-07-13T08:16:04;3.78;;;1.17;;
25351;SDS011;13304;48.464;8.712;2023-07-13T08:18:31;3.55;;;1.50;;
25351;SDS011;13304;48.464;8.712;2023-07-13T08:20:57;3.63;;;1.40;;
25351;SDS011;13304;48.464;8.712;2023-07-13T08:23:23;4.40;;;1.23;;
25351;SDS011;13304;48.464;8.712;2023-07-13T08:25:50;3.40;;;1.33;;
25351;SDS011;13304;48.464;8.712;2023-07-13T08:28:17;6.40;;;1.58;;
25351;SDS011;13304;48.464;8.712;2023-07-13T08:30:42;2.35;;;1.33;;
25351;SDS011;13304;48.464;8.712;2023-07-13T08:33:08;4.68;;;1.60;;
25351;SDS011;13304;48.464;8.712;2023-07-13T08:35:34;6.05;;;1.70;;
25351;SDS011;13304;48.464;8.712;2023-07-13T08:37:59;4.50;;;1.15;;
25351;SDS011;13304;48.464;8.712;2023-07-13T08:40:26;4.35;;;1.15;;
25351;SDS011;13304;48.464;8.712;2023-07-13T08:42:57;8.07;;;1.55;;
25351;SDS011;13304;48.464;8.712;2023-07-13T08:47:52;3.65;;;1.30;;
25351;SDS011;13304;48.464;8.712;2023-07-13T08:50:23;4.03;;;1.50;;
25351;SDS011;13304;48.464;8.712;2023-07-13T08:52:53;2.83;;;1.60;;
25351;SDS011;13304;48.464;8.712;2023-07-13T08:55:22;3.58;;;1.27;;
25351;SDS011;13304;48.464;8.712;2023-07-13T08:58:16;5.25;;;1.52;;
25351;SDS011;13304;48.464;8.712;2023-07-13T09:00:48;3.75;;;1.30;;
25351;SDS011;13304;48.464;8.712;2023-07-13T09:03:29;4.60;;;1.27;;
25351;SDS011;13304;48.464;8.712;2023-07-13T09:06:02;2.90;;;1.45;;
25351;SDS011;13304;48.464;8.712;2023-07-13T09:16:40;2.90;;;1.05;;
25351;SDS011;13304;48.464;8.712;2023-07-13T09:19:07;4.63;;;1.33;;
25351;SDS011;13304;48.464;8.712;2023-07-13T09:21:48;1.95;;;1.20;;
25351;SDS011;13304;48.464;8.712;2023-07-13T09:27:33;7.53;;;1.60;;
25351;SDS011;13304;48.464;8.712;2023-07-13T09:30:26;2.53;;;1.38;;
25351;SDS011;13304;48.464;8.712;2023-07-13T09:33:01;6.13;;;1.30;;
25351;SDS011;13304;48.464;8.712;2023-07-13T09:35:28;2.88;;;1.25;;
25351;SDS011;13304;48.464;8.712;2023-07-13T09:37:58;6.22;;;1.48;;
25351;SDS011;13304;48.464;8.712;2023-07-13T09:43:18;5.75;;;1.40;;
25351;SDS011;13304;48.464;8.712;2023-07-13T09:45:46;5.75;;;1.50;;
25351;SDS011;13304;48.464;8.712;2023-07-13T09:48:13;3.88;;;1.30;;
25351;SDS011;13304;48.464;8.712;2023-07-13T09:50:41;4.75;;;1.27;;
25351;SDS011;13304;48.464;8.712;2023-07-13T09:53:15;4.43;;;1.20;;
25351;SDS011;13304;48.464;8.712;2023-07-13T09:55:43;2.75;;;1.23;;
25351;SDS011;13304;48.464;8.712;2023-07-13T09:58:15;3.95;;;1.15;;
25351;SDS011;13304;48.464;8.712;2023-07-13T10:00:43;4.15;;;1.20;;
25351;SDS011;13304;48.464;8.712;2023-07-13T10:03:19;2.67;;;1.30;;
25351;SDS011;13304;48.464;8.712;2023-07-13T10:05:48;1.88;;;1.23;;
25351;SDS011;13304;48.464;8.712;2023-07-13T10:08:24;3.03;;;1.15;;
25351;SDS011;13304;48.464;8.712;2023-07-13T10:11:00;5.28;;;1.20;;
25351;SDS011;13304;48.464;8.712;2023-07-13T10:13:34;2.80;;;1.13;;
25351;SDS011;13304;48.464;8.712;2023-07-13T10:16:02;4.72;;;1.50;;
25351;SDS011;13304;48.464;8.712;2023-07-13T10:18:38;3.40;;;1.10;;
25351;SDS011;13304;48.464;8.712;2023-07-13T10:21:12;1.98;;;1.10;;
25351;SDS011;13304;48.464;8.712;2023-07-13T10:23:54;3.40;;;1.50;;
25351;SDS011;13304;48.464;8.712;2023-07-13T10:26:31;7.15;;;1.30;;
25351;SDS011;13304;48.464;8.712;2023-07-13T10:29:01;3.38;;;1.17;;
25351;SDS011;13304;48.464;8.712;2023-07-13T10:31:36;2.28;;;1.38;;
25351;SDS011;13304;48.464;8.712;2023-07-13T10:34:04;1.92;;;1.10;;
25351;SDS011;13304;48.464;8.712;2023-07-13T10:36:34;3.95;;;1.23;;
25351;SDS011;13304;48.464;8.712;2023-07-13T10:39:06;3.88;;;1.33;;
25351;SDS011;13304;48.464;8.712;2023-07-13T10:41:39;2.22;;;1.48;;
25351;SDS011;13304;48.464;8.712;2023-07-13T10:44:09;4.88;;;1.70;;
25351;SDS011;13304;48.464;8.712;2023-07-13T10:46:52;3.88;;;1.20;;
25351;SDS011;13304;48.464;8.712;2023-07-13T10:49:38;3.08;;;1.13;;
25351;SDS011;13304;48.464;8.712;2023-07-13T10:52:37;4.07;;;1.30;;
25351;SDS011;13304;48.464;8.712;2023-07-13T10:55:05;4.10;;;1.50;;
25351;SDS011;13304;48.464;8.712;2023-07-13T10:57:32;7.85;;;1.67;;
25351;SDS011;13304;48.464;8.712;2023-07-13T11:00:14;6.60;;;1.42;;
25351;SDS011;13304;48.464;8.712;2023-07-13T11:02:42;3.13;;;1.20;;
25351;SDS011;13304;48.464;8.712;2023-07-13T11:08:12;4.85;;;1.52;;
25351;SDS011;13304;48.464;8.712;2023-07-13T11:10:54;4.78;;;1.20;;
25351;SDS011;13304;48.464;8.712;2023-07-13T11:16:14;1.40;;;1.00;;
25351;SDS011;13304;48.464;8.712;2023-07-13T11:24:49;5.90;;;1.33;;
25351;SDS011;13304;48.464;8.712;2023-07-13T11:35:38;4.00;;;1.30;;
25351;SDS011;13304;48.464;8.712;2023-07-13T11:38:14;8.32;;;1.25;;
25351;SDS011;13304;48.464;8.712;2023-07-13T11:40:44;3.35;;;1.27;;
25351;SDS011;13304;48.464;8.712;2023-07-13T11:43:12;2.60;;;1.08;;
25351;SDS011;13304;48.464;8.712;2023-07-13T11:45:40;2.28;;;1.27;;
25351;SDS011;13304;48.464;8.712;2023-07-13T11:48:20;5.28;;;1.35;;
25351;SDS011;13304;48.464;8.712;2023-07-13T11:50:53;2.90;;;1.42;;
25351;SDS011;13304;48.464;8.712;2023-07-13T11:53:22;1.75;;;1.10;;
25351;SDS011;13304;48.464;8.712;2023-07-13T11:55:50;4.93;;;1.42;;
25351;SDS011;13304;48.464;8.712;2023-07-13T11:58:17;3.17;;;1.30;;
25351;SDS011;13304;48.464;8.712;2023-07-13T12:00:48;2.40;;;1.05;;
25351;SDS011;13304;48.464;8.712;2023-07-13T12:03:15;3.00;;;1.30;;
25351;SDS011;13304;48.464;8.712;2023-07-13T12:05:55;2.20;;;1.30;;
25351;SDS011;13304;48.464;8.712;2023-07-13T12:08:26;5.13;;;1.30;;
25351;SDS011;13304;48.464;8.712;2023-07-13T12:11:26;2.78;;;1.23;;
25351;SDS011;13304;48.464;8.712;2023-07-13T12:13:46;3.22;;;1.20;;
25351;SDS011;13304;48.464;8.712;2023-07-13T12:16:25;2.80;;;1.30;;
25351;SDS011;13304;48.464;8.712;2023-07-13T12:18:53;4.55;;;1.20;;
25351;SDS011;13304;48.464;8.712;2023-07-13T12:21:22;2.70;;;1.15;;
25351;SDS011;13304;48.464;8.712;2023-07-13T12:23:54;3.83;;;1.30;;
25351;SDS011;13304;48.464;8.712;2023-07-13T12:26:20;4.70;;;1.00;;
25351;SDS011;13304;48.464;8.712;2023-07-13T12:28:47;5.15;;;1.30;;
25351;SDS011;13304;48.464;8.712;2023-07-13T12:31:33;2.47;;;1.40;;
25351;SDS011;13304;48.464;8.712;2023-07-13T12:42:00;6.78;;;1.27;;
25351;SDS011;13304;48.464;8.712;2023-07-13T12:44:40;4.72;;;1.30;;
25351;SDS011;13304;48.464;8.712;2023-07-13T12:47:12;2.88;;;1.27;;
25351;SDS011;13304;48.464;8.712;2023-07-13T12:49:41;3.90;;;1.20;;
25351;SDS011;13304;48.464;8.712;2023-07-13T12:52:22;4.93;;;1.58;;
25351;SDS011;13304;48.464;8.712;2023-07-13T12:54:56;7.72;;;1.48;;
25351;SDS011;13304;48.464;8.712;2023-07-13T12:57:23;2.95;;;1.30;;
25351;SDS011;13304;48.464;8.712;2023-07-13T12:59:53;1.40;;;0.90;;
25351;SDS011;13304;48.464;8.712;2023-07-13T13:05:00;6.00;;;1.17;;
25351;SDS011;13304;48.464;8.712;2023-07-13T13:07:30;3.17;;;1.30;;
25351;SDS011;13304;48.464;8.712;2023-07-13T13:09:56;3.85;;;1.42;;
25351;SDS011;13304;48.464;8.712;2023-07-13T13:12:22;5.10;;;1.35;;
25351;SDS011;13304;48.464;8.712;2023-07-13T13:14:51;1.63;;;1.13;;
25351;SDS011;13304;48.464;8.712;2023-07-13T13:17:28;2.83;;;1.48;;
25351;SDS011;13304;48.464;8.712;2023-07-13T13:19:56;2.78;;;1.25;;
25351;SDS011;13304;48.464;8.712;2023-07-13T13:22:22;5.05;;;1.45;;
25351;SDS011;13304;48.464;8.712;2023-07-13T13:24:48;2.50;;;1.10;;
25351;SDS011;13304;48.464;8.712;2023-07-13T13:27:14;3.15;;;1.20;;
25351;SDS011;13304;48.464;8.712;2023-07-13T13:29:45;3.92;;;1.10;;
25351;SDS011;13304;48.464;8.712;2023-07-13T13:32:12;2.13;;;1.33;;
25351;SDS011;13304;48.464;8.712;2023-07-13T13:34:39;3.72;;;1.48;;
25351;SDS011;13304;48.464;8.712;2023-07-13T13:37:05;3.72;;;1.20;;
25351;SDS011;13304;48.464;8.712;2023-07-13T13:39:50;3.47;;;1.45;;
25351;SDS011;13304;48.464;8.712;2023-07-13T13:42:17;2.03;;;1.15;;
25351;SDS011;13304;48.464;8.712;2023-07-13T13:44:42;3.38;;;1.40;;
25351;SDS011;13304;48.464;8.712;2023-07-13T13:47:17;5.20;;;1.50;;
25351;SDS011;13304;48.464;8.712;2023-07-13T13:49:54;5.13;;;1.30;;
25351;SDS011;13304;48.464;8.712;2023-07-13T13:52:19;3.08;;;1.52;;
25351;SDS011;13304;48.464;8.712;2023-07-13T13:54:45;2.08;;;1.20;;
25351;SDS011;13304;48.464;8.712;2023-07-13T13:57:11;4.15;;;1.05;;
25351;SDS011;13304;48.464;8.712;2023-07-13T13:59:37;1.90;;;1.10;;
25351;SDS011;13304;48.464;8.712;2023-07-13T14:02:14;4.32;;;1.75;;
25351;SDS011;13304;48.464;8.712;2023-07-13T14:04:49;2.38;;;1.42;;
25351;SDS011;13304;48.464;8.712;2023-07-13T14:07:19;5.90;;;1.50;;
25351;SDS011;13304;48.464;8.712;2023-07-13T14:09:45;3.97;;;1.30;;
25351;SDS011;13304;48.464;8.712;2023-07-13T14:12:10;2.90;;;1.42;;
25351;SDS011;13304;48.464;8.712;2023-07-13T14:14:39;2.97;;;1.20;;
25351;SDS011;13304;48.464;8.712;2023-07-13T14:17:09;2.70;;;1.73;;
25351;SDS011;13304;48.464;8.712;2023-07-13T14:19:56;3.35;;;1.45;;
25351;SDS011;13304;48.464;8.712;2023-07-13T14:22:25;3.08;;;1.25;;
25351;SDS011;13304;48.464;8.712;2023-07-13T14:24:55;3.55;;;1.30;;
25351;SDS011;13304;48.464;8.712;2023-07-13T14:27:22;2.58;;;1.35;;
25351;SDS011;13304;48.464;8.712;2023-07-13T14:29:49;2.17;;;1.38;;
25351;SDS011;13304;48.464;8.712;2023-07-13T14:32:15;4.47;;;1.50;;
25351;SDS011;13304;48.464;8.712;2023-07-13T14:34:41;3.40;;;1.45;;
25351;SDS011;13304;48.464;8.712;2023-07-13T14:37:11;2.47;;;1.20;;
25351;SDS011;13304;48.464;8.712;2023-07-13T14:39:39;3.10;;;1.45;;
25351;SDS011;13304;48.464;8.712;2023-07-13T14:42:08;2.97;;;1.40;;
25351;SDS011;13304;48.464;8.712;2023-07-13T14:44:34;3.92;;;1.50;;
25351;SDS011;13304;48.464;8.712;2023-07-13T14:47:02;3.47;;;1.27;;
25351;SDS011;13304;48.464;8.712;2023-07-13T14:49:40;3.40;;;1.63;;
25351;SDS011;13304;48.464;8.712;2023-07-13T14:52:21;5.77;;;1.70;;
25351;SDS011;13304;48.464;8.712;2023-07-13T14:54:48;4.95;;;1.58;;
25351;SDS011;13304;48.464;8.712;2023-07-13T14:57:19;2.33;;;1.27;;
25351;SDS011;13304;48.464;8.712;2023-07-13T14:59:45;4.22;;;1.40;;
25351;SDS011;13304;48.464;8.712;2023-07-13T15:02:17;3.25;;;1.75;;
25351;SDS011;13304;48.464;8.712;2023-07-13T15:04:43;5.35;;;1.35;;
25351;SDS011;13304;48.464;8.712;2023-07-13T15:07:10;2.90;;;1.30;;
25351;SDS011;13304;48.464;8.712;2023-07-13T15:09:37;2.83;;;1.30;;
25351;SDS011;13304;48.464;8.712;2023-07-13T15:12:02;3.17;;;1.40;;
25351;SDS011;13304;48.464;8.712;2023-07-13T15:14:30;4.22;;;1.48;;
25351;SDS011;13304;48.464;8.712;2023-07-13T15:16:56;6.45;;;1.35;;
25351;SDS011;13304;48.464;8.712;2023-07-13T15:19:21;4.28;;;1.30;;
25351;SDS011;13304;48.464;8.712;2023-07-13T15:21:48;4.28;;;1.52;;
25351;SDS011;13304;48.464;8.712;2023-07-13T15:24:15;3.60;;;1.20;;
25351;SDS011;13304;48.464;8.712;2023-07-13T15:26:41;8.38;;;1.60;;
25351;SDS011;13304;48.464;8.712;2023-07-13T15:29:13;6.90;;;1.67;;
25351;SDS011;13304;48.464;8.712;2023-07-13T15:31:39;8.52;;;1.50;;
25351;SDS011;13304;48.464;8.712;2023-07-13T15:34:15;5.38;;;1.55;;
25351;SDS011;13304;48.464;8.712;2023-07-13T15:36:44;3.40;;;1.50;;
25351;SDS011;13304;48.464;8.712;2023-07-13T15:39:13;2.78;;;1.20;;
25351;SDS011;13304;48.464;8.712;2023-07-13T15:41:44;5.05;;;1.30;;
25351;SDS011;13304;48.464;8.712;2023-07-13T15:44:20;2.75;;;1.30;;
25351;SDS011;13304;48.464;8.712;2023-07-13T15:46:48;5.13;;;1.55;;
25351;SDS011;13304;48.464;8.712;2023-07-13T15:49:15;7.85;;;1.70;;